Hovedside
METAR-TAF:

METAR-TAF

Lufthavner :

Windhoek Hosea Kutako internasjonale lufthavn

Windhoek, Namibia

breddegrad: 22-29S, lengdegrad: 017-28E, høyde over havet: 1715 m

Gjeldene værobservasjon

Denne rapporten ble laget for 7 timer og 57 minutter siden, klokken 18:00 UTC
Vind 1 kt fra Sør-sørøst
Temperatur 8°C
Luftfuktighet 36%
Trykk 1028 hPa
Sikt 10 km eller mer
ingen skyer under 1500 m og ingen bygeskyer

METAR: FYWH 131800Z 16001KT CAVOK 08/M06 Q1028 NOSIG

Tid: 03:57 (01:57 UTC)

Varsel

Denne rapporten ble laget for 9 timer og 57 minutter siden, klokken 16:00 UTC
Varsel gyldig fra 13. klokken 18 UTC til 14. klokken 18 UTC
Vind 7 kt fra Øst
Sikt 10 km eller mer
ingen skyer under 1500 m og ingen bygeskyer
Blir
fra 13. klokken 19 UTC til 13. klokken 21 UTC
Vind 4 kt fra Vest

TAF: FYWH 131600Z 1318/1418 08007KT CAVOK BECMG 1319/1321 28004KT

Værobservasjoner og værvarsel for over 4000 flyplasser (METAR- og TAF-rapporter).

Tilgjengelige stasjoner er representert av de røde og gule prikkene på kartet.

Hold musepekeren over prikken for å se navnet på stasjonen.

Klikk så for å se værobservasjoner og -varsler.

For å forandre kartet kan du klikke på den grønne knappen med svart kryss for å zoome inn, på den grønne knappen med strek for å zoome ut, eller på de grønne pilene for å se tilstøtende kart.


METAR-TAF: